ES-0031 weather

La Segarra Airfield
Sant Guim de Freixenet, Lleida, Spain

Public forecast

Using degrees Celsius for public forecast. Weather courtesy of forecast.io.

METAR (pilot weather report)

Closest report is Sabadell Airport, 32.5 nm (60.1 km) ESE. Retrieved 2019/09/15 12:30 UTC (0 seconds ago):

LELL 151230Z 11008KT 060V160 CAVOK 30/11 Q1022

TAF (pilot weather forecast)

Closest forecast is Sabadell Airport, 32.5 nm (60.1 km) ESE. Retrieved 2019/09/15 09:29 UTC (3 hours ago):

TAF LELL 150800Z 1509/1609 09012KT 9999 FEW030 TX29/1512Z TN17/1606Z BECMG 1517/1519 04005KT